Ana Sayfa
METAR-TAF:

METAR-TAF

Havaalanları :

Arlington Municipal Airport

Arlington, Teksas, Amerika Birleşik Devletleri

Enlem: 32-39-50N, Boylam: 097-05-45W, yükseklik: 192 m

Güncel hava durumu gözlemi

Rapor saat 14:31 UTC de 26 dakika önce yapıldı.
Rüzgar güney/güneydoğudan 9 kt ve 18 kt'a kadar ani rüzgarlar
Sıcaklık 29°C
Nem 74%
Basınç 1014 hPa
Görüş mesafesi: 16.1 km
1600 ft yükseklikte çok bulutlu

METAR: KGKY 251431Z 16009G18KT 10SM OVC016 29/24 A2995 RMK AO2 T02940244 $

Saat: 09:57 (14:57 UTC)

Tahmin

Rapor saat 13:40 UTC de 1 saat ve 17 dakika önce yapıldı.
Ayın 25'si saat 14 UTC'den ayın 26'si saat 12 UTC'ye kadar geçerli Tahmin
Rüzgar güneydan 12 kt
Görüş mesafesi: 10 km
2500 ft yükseklikte az bulutlu
25000 ft yükseklikte parçalı bulutlu
Geçici
ayın 25'si saat 14 UTC'den ayın 25'si saat 15 UTC'ye kadar
1500 ft yükseklikte parçalı çok bulutlu

TAF: KGKY 251340Z 2514/2612 18012KT P6SM FEW025 SCT250 TEMPO 2514/2515 BKN015

4.000'den fazla havaalanı için hava durumu gözlemleri ve tahminleri (METAR ve TAF raporları).

Kullanılabilir istasyonlar harita üzerinde sarı ve kırmızı noktalarla gösterilir.

İstasyonun adını görmek için fareyi noktanın üzerinde gezdirin.

Sonrasında hava gözlem ve tahminlerini görmek için tıklayın.

Haritayı değiştirmek için: yaklaştırmak için siyah artı işaretli yeşil düğmeye ve uzaklaştırmak için de eksi işaretli düğmeye hızla tıklayın; bitişik haritalar için yeşil okları kullanın.


METAR-TAF: